createdAt,value
2018-10-03T00:01:21.030Z,60.96
2018-10-03T00:03:51.057Z,61.56
2018-10-03T00:06:21.089Z,61.10
2018-10-03T00:08:51.038Z,60.87
2018-10-03T00:11:21.060Z,60.74
2018-10-03T00:13:51.149Z,61.16
2018-10-03T00:16:21.167Z,61.18
2018-10-03T00:18:51.083Z,61.25
2018-10-03T00:21:21.094Z,61.50
2018-10-03T00:23:50.218Z,61.57
2018-10-03T00:26:19.454Z,62.40
2018-10-03T00:28:48.591Z,62.08
2018-10-03T00:31:17.877Z,61.87
2018-10-03T00:33:47.030Z,61.48
2018-10-03T00:36:16.174Z,62.49
2018-10-03T00:38:45.307Z,62.40
2018-10-03T00:41:14.455Z,62.69
2018-10-03T00:43:43.623Z,61.91
2018-10-03T00:46:12.756Z,61.53
2018-10-03T00:48:41.883Z,60.47
2018-10-03T00:51:11.026Z,61.06
2018-10-03T00:53:40.162Z,60.29
2018-10-03T00:56:09.345Z,60.82
2018-10-03T00:58:38.482Z,60.79
2018-10-03T01:01:08.034Z,61.05
2018-10-03T01:03:37.172Z,60.95
2018-10-03T01:06:06.307Z,60.78
2018-10-03T01:08:35.590Z,61.27
2018-10-03T01:11:04.726Z,61.64
2018-10-03T01:13:33.874Z,61.59
2018-10-03T01:16:03.015Z,60.88
2018-10-03T01:18:32.135Z,61.70
2018-10-03T01:21:01.275Z,61.37
2018-10-03T01:23:30.545Z,60.85
2018-10-03T01:25:59.702Z,61.63
2018-10-03T01:28:28.821Z,61.22
2018-10-03T01:30:58.166Z,61.65
2018-10-03T01:33:27.362Z,61.80
2018-10-03T01:35:56.749Z,61.60
2018-10-03T01:38:25.935Z,61.74
2018-10-03T01:40:56.287Z,61.77
2018-10-03T01:43:26.584Z,61.20
2018-10-03T01:45:55.711Z,61.41
2018-10-03T01:48:24.847Z,60.76
2018-10-03T01:50:53.991Z,61.01
2018-10-03T01:53:23.234Z,60.91
2018-10-03T01:55:52.372Z,60.67
2018-10-03T01:58:21.519Z,61.73
2018-10-03T02:00:51.679Z,61.22
2018-10-03T02:03:21.330Z,61.02
2018-10-03T02:05:51.439Z,61.40
2018-10-03T02:08:21.435Z,61.31
2018-10-03T02:10:51.447Z,61.64
2018-10-03T02:13:20.599Z,61.82
2018-10-03T02:15:49.746Z,61.29
2018-10-03T02:18:18.927Z,61.05
2018-10-03T02:20:48.073Z,61.62
2018-10-03T02:23:17.260Z,62.62
2018-10-03T02:25:46.406Z,62.12
2018-10-03T02:28:15.567Z,61.52
2018-10-03T02:30:44.740Z,62.35
2018-10-03T02:33:13.891Z,61.88
2018-10-03T02:35:43.038Z,62.27
2018-10-03T02:38:12.232Z,62.95
2018-10-03T02:40:41.389Z,62.78
2018-10-03T02:43:10.538Z,62.68
2018-10-03T02:45:39.691Z,63.16
2018-10-03T02:48:08.869Z,64.09
2018-10-03T02:50:38.011Z,63.68
2018-10-03T02:53:07.267Z,64.84
2018-10-03T02:55:36.407Z,65.08
2018-10-03T02:58:05.635Z,65.14
2018-10-03T03:00:34.743Z,65.51
2018-10-03T03:03:03.883Z,66.33
2018-10-03T03:05:33.015Z,66.03
2018-10-03T03:08:02.184Z,66.40
2018-10-03T03:10:31.345Z,65.95
2018-10-03T03:13:00.508Z,66.44
2018-10-03T03:15:29.692Z,66.43
2018-10-03T03:17:58.838Z,66.66
2018-10-03T03:20:27.976Z,66.22
2018-10-03T03:22:57.116Z,65.67
2018-10-03T03:25:26.255Z,65.36
2018-10-03T03:27:55.407Z,66.05
2018-10-03T03:30:24.540Z,65.77
2018-10-03T03:32:53.788Z,65.31
2018-10-03T03:35:22.988Z,65.17
2018-10-03T03:37:52.195Z,65.81
2018-10-03T03:40:21.574Z,65.48
2018-10-03T03:42:51.679Z,65.50
2018-10-03T03:45:21.570Z,65.96
2018-10-03T03:47:51.588Z,65.88
2018-10-03T03:50:21.614Z,66.29
2018-10-03T03:52:51.600Z,66.13
2018-10-03T03:55:21.592Z,65.86
2018-10-03T03:57:51.666Z,66.31
2018-10-03T04:00:21.747Z,65.92
2018-10-03T04:02:51.667Z,65.72
2018-10-03T04:05:20.797Z,65.74
2018-10-03T04:07:49.964Z,66.14
2018-10-03T04:10:19.092Z,65.55
2018-10-03T04:12:48.243Z,65.37
2018-10-03T04:15:17.374Z,65.24
2018-10-03T04:17:46.543Z,65.22
2018-10-03T04:20:15.679Z,64.90
2018-10-03T04:22:44.807Z,65.22
2018-10-03T04:25:13.931Z,64.73
2018-10-03T04:27:43.073Z,65.36
2018-10-03T04:30:12.207Z,65.19
2018-10-03T04:32:41.359Z,65.04
2018-10-03T04:35:10.520Z,65.35
2018-10-03T04:37:39.649Z,65.52
2018-10-03T04:40:08.787Z,65.91
2018-10-03T04:42:38.114Z,65.92
2018-10-03T04:45:07.270Z,65.17
2018-10-03T04:47:36.423Z,65.66
2018-10-03T04:50:06.436Z,65.58
2018-10-03T04:52:35.583Z,66.79
2018-10-03T04:55:04.857Z,67.07
2018-10-03T04:57:33.945Z,67.33
2018-10-03T05:00:03.147Z,66.49
2018-10-03T05:02:32.290Z,67.13
2018-10-03T05:05:01.433Z,67.51
2018-10-03T05:07:30.563Z,67.26
2018-10-03T05:09:59.708Z,67.25
2018-10-03T05:12:28.841Z,67.25
2018-10-03T05:14:57.991Z,67.86
2018-10-03T05:17:27.158Z,67.63
2018-10-03T05:19:56.331Z,67.24
2018-10-03T05:22:25.478Z,67.16
2018-10-03T05:24:54.891Z,67.27
2018-10-03T05:27:24.296Z,67.30
2018-10-03T05:29:53.439Z,67.30
2018-10-03T05:32:22.579Z,67.31
2018-10-03T05:34:51.930Z,66.85
2018-10-03T05:37:21.931Z,67.08
2018-10-03T05:39:51.868Z,67.69
2018-10-03T05:42:21.858Z,67.42
2018-10-03T05:44:51.920Z,66.98
2018-10-03T05:47:21.963Z,65.97
2018-10-03T05:49:52.931Z,66.15
2018-10-03T05:52:22.073Z,66.47
2018-10-03T05:54:51.972Z,66.46
2018-10-03T05:57:22.149Z,65.83
2018-10-03T05:59:51.383Z,66.66
2018-10-03T06:02:21.770Z,66.01
2018-10-03T06:04:51.932Z,65.89
2018-10-03T06:07:21.943Z,66.04
2018-10-03T06:09:51.919Z,65.91
2018-10-03T06:12:21.975Z,65.95
2018-10-03T06:14:52.007Z,66.04
2018-10-03T06:17:22.029Z,66.38
2018-10-03T06:19:52.049Z,66.61
2018-10-03T06:22:21.946Z,66.25
2018-10-03T06:24:51.982Z,66.91
2018-10-03T06:27:21.975Z,66.23
2018-10-03T06:29:52.002Z,66.67
2018-10-03T06:32:22.036Z,66.68
2018-10-03T06:34:52.064Z,66.42
2018-10-03T06:37:22.055Z,67.17
2018-10-03T06:39:58.574Z,66.91
2018-10-03T06:42:27.716Z,67.87
2018-10-03T06:44:56.875Z,68.14
2018-10-03T06:47:26.028Z,67.56
2018-10-03T06:49:55.560Z,68.71
2018-10-03T06:52:24.787Z,68.47
2018-10-03T06:54:54.201Z,67.96
2018-10-03T06:57:23.391Z,68.94
2018-10-03T06:59:52.539Z,69.39
2018-10-03T07:02:22.139Z,68.91
2018-10-03T07:04:52.163Z,69.29
2018-10-03T07:07:22.215Z,69.51
2018-10-03T07:09:52.292Z,69.79
2018-10-03T07:12:22.119Z,71.08
2018-10-03T07:14:52.184Z,71.06
2018-10-03T07:17:22.131Z,70.06
2018-10-03T07:19:52.143Z,70.89
2018-10-03T07:22:22.247Z,71.57
2018-10-03T07:24:51.461Z,71.47
2018-10-03T07:27:20.631Z,71.45
2018-10-03T07:29:49.837Z,71.75
2018-10-03T07:32:18.987Z,71.66
2018-10-03T07:34:48.419Z,71.68
2018-10-03T07:37:17.563Z,72.27
2018-10-03T07:39:46.963Z,71.67
2018-10-03T07:42:16.135Z,71.56
2018-10-03T07:44:45.297Z,71.45
2018-10-03T07:47:14.443Z,72.29
2018-10-03T07:49:43.586Z,72.08
2018-10-03T07:52:12.796Z,72.43
2018-10-03T07:54:42.007Z,71.53
2018-10-03T07:57:11.186Z,72.52
2018-10-03T07:59:40.314Z,72.79
2018-10-03T08:02:09.455Z,71.98
2018-10-03T08:04:38.592Z,71.91
2018-10-03T08:07:07.900Z,72.21
2018-10-03T08:09:37.066Z,72.06
2018-10-03T08:12:06.206Z,72.55
2018-10-03T08:14:35.348Z,72.33
2018-10-03T08:17:04.486Z,72.29
2018-10-03T08:19:33.663Z,73.19
2018-10-03T08:22:02.808Z,73.36
2018-10-03T08:24:32.017Z,73.34
2018-10-03T08:27:01.133Z,73.10
2018-10-03T08:29:30.264Z,73.46
2018-10-03T08:31:59.414Z,73.42
2018-10-03T08:34:28.549Z,74.10
2018-10-03T08:36:57.747Z,73.62
2018-10-03T08:39:26.888Z,72.77
2018-10-03T08:41:56.015Z,73.31
2018-10-03T08:44:25.149Z,74.16
2018-10-03T08:46:54.283Z,73.75
2018-10-03T08:49:23.414Z,73.53
2018-10-03T08:51:52.583Z,73.13
2018-10-03T08:54:22.372Z,73.34
2018-10-03T08:56:52.394Z,72.51
2018-10-03T08:59:22.412Z,72.38
2018-10-03T09:01:52.579Z,71.58
2018-10-03T09:04:23.495Z,72.10
2018-10-03T09:06:52.630Z,71.23
2018-10-03T09:09:22.383Z,70.73
2018-10-03T09:11:52.408Z,72.05
2018-10-03T09:14:22.419Z,71.28
2018-10-03T09:16:52.655Z,70.66
2018-10-03T09:19:22.636Z,70.25
2018-10-03T09:21:52.410Z,70.64
2018-10-03T09:24:21.534Z,69.97
2018-10-03T09:26:50.687Z,70.03
2018-10-03T09:29:19.830Z,69.74
2018-10-03T09:31:49.531Z,70.24
2018-10-03T09:34:18.674Z,69.32
2018-10-03T09:36:47.831Z,68.35
2018-10-03T09:39:17.030Z,68.93
2018-10-03T09:41:46.187Z,68.72
2018-10-03T09:44:15.431Z,68.43
2018-10-03T09:46:44.821Z,68.49
2018-10-03T09:49:14.023Z,66.98
2018-10-03T09:51:43.167Z,66.97
2018-10-03T09:54:12.303Z,65.66
2018-10-03T09:56:41.523Z,65.44
2018-10-03T09:59:10.677Z,67.18
2018-10-03T10:01:39.830Z,64.95
2018-10-03T10:04:08.978Z,65.17
2018-10-03T10:06:38.135Z,64.95
2018-10-03T10:09:09.790Z,64.22
2018-10-03T10:11:39.033Z,64.29
2018-10-03T10:14:08.087Z,64.68
2018-10-03T10:16:37.228Z,65.09
2018-10-03T10:19:06.483Z,64.17
2018-10-03T10:21:35.647Z,64.75
2018-10-03T10:24:04.856Z,61.96
2018-10-03T10:26:34.000Z,63.36
2018-10-03T10:29:04.143Z,62.30
2018-10-03T10:31:33.284Z,61.33
2018-10-03T10:34:03.427Z,60.38
2018-10-03T10:36:32.662Z,60.25
2018-10-03T10:39:01.825Z,60.31
2018-10-03T10:41:31.161Z,60.00
2018-10-03T10:44:00.116Z,61.65
2018-10-03T10:46:29.292Z,61.57
2018-10-03T10:48:58.413Z,60.82
2018-10-03T10:51:27.658Z,60.88
2018-10-03T10:53:56.797Z,60.77
2018-10-03T10:56:25.956Z,59.53
2018-10-03T10:58:55.182Z,58.48
2018-10-03T11:01:24.315Z,59.02
2018-10-03T11:03:53.647Z,59.01
2018-10-03T11:06:22.834Z,59.18
2018-10-03T11:08:52.707Z,59.98
2018-10-03T11:11:22.718Z,60.48
2018-10-03T11:13:52.742Z,61.21
2018-10-03T11:16:22.672Z,60.25
2018-10-03T11:18:52.778Z,60.12
2018-10-03T11:21:22.789Z,59.41
2018-10-03T11:23:53.058Z,57.43
2018-10-03T11:26:22.803Z,57.38
2018-10-03T11:28:52.707Z,55.77
2018-10-03T11:31:22.818Z,56.17
2018-10-03T11:33:52.787Z,55.57
2018-10-03T11:36:22.787Z,55.97
2018-10-03T11:38:52.815Z,55.74
2018-10-03T11:41:22.877Z,56.92
2018-10-03T11:43:52.950Z,57.03
2018-10-03T11:46:22.919Z,57.51
2018-10-03T11:48:52.857Z,57.08
2018-10-03T11:51:22.795Z,57.65
2018-10-03T11:53:52.927Z,57.74
2018-10-03T11:56:22.835Z,57.27
2018-10-03T11:58:52.847Z,57.95
2018-10-03T12:01:22.863Z,58.67
2018-10-03T12:03:52.980Z,58.13
2018-10-03T12:06:22.988Z,58.02
2018-10-03T12:08:52.962Z,58.38
2018-10-03T12:11:22.827Z,59.43
2018-10-03T12:13:52.911Z,59.77
2018-10-03T12:16:22.888Z,59.53
2018-10-03T12:18:52.956Z,58.53
2018-10-03T12:21:22.088Z,58.95
2018-10-03T12:23:51.264Z,60.29
2018-10-03T12:26:20.420Z,59.98
2018-10-03T12:28:49.584Z,58.71
2018-10-03T12:31:18.726Z,58.99
2018-10-03T12:33:48.036Z,59.77
2018-10-03T12:36:17.254Z,58.78
2018-10-03T12:38:46.459Z,59.71
2018-10-03T12:41:15.650Z,58.85
2018-10-03T12:43:44.833Z,58.73
2018-10-03T12:46:13.992Z,59.60
2018-10-03T12:48:43.842Z,59.98
2018-10-03T12:51:13.127Z,59.17
2018-10-03T12:53:42.314Z,59.55
2018-10-03T12:56:11.463Z,59.57
2018-10-03T12:58:40.659Z,59.99
2018-10-03T13:01:10.659Z,59.75
2018-10-03T13:03:40.749Z,59.39
2018-10-03T13:06:10.672Z,58.46
2018-10-03T13:08:39.860Z,59.94
2018-10-03T13:11:09.087Z,58.95
2018-10-03T13:13:38.313Z,59.02
2018-10-03T13:16:07.665Z,58.54
2018-10-03T13:18:36.819Z,58.33
2018-10-03T13:21:05.979Z,59.93
2018-10-03T13:23:35.138Z,59.12
2018-10-03T13:26:04.347Z,59.43
2018-10-03T13:28:33.515Z,59.59
2018-10-03T13:31:02.656Z,59.77
2018-10-03T13:33:31.855Z,59.86
2018-10-03T13:36:01.073Z,60.59
2018-10-03T13:38:30.247Z,60.49
2018-10-03T13:40:59.507Z,60.54
2018-10-03T13:43:28.639Z,59.89
2018-10-03T13:45:57.851Z,60.14
2018-10-03T13:48:27.866Z,60.41
2018-10-03T13:50:57.043Z,60.38
2018-10-03T13:53:26.276Z,60.56
2018-10-03T13:55:55.503Z,59.62
2018-10-03T13:58:24.650Z,60.70
2018-10-03T14:00:53.911Z,61.00
2018-10-03T14:03:23.203Z,60.65
2018-10-03T14:05:53.260Z,60.10
2018-10-03T14:08:23.211Z,59.63
2018-10-03T14:10:53.426Z,59.76
2018-10-03T14:13:23.270Z,59.72
2018-10-03T14:15:54.243Z,60.72
2018-10-03T14:18:23.689Z,60.68
2018-10-03T14:20:53.236Z,59.92
2018-10-03T14:23:24.128Z,60.03
2018-10-03T14:25:53.589Z,59.31
2018-10-03T14:28:25.235Z,60.19
2018-10-03T14:30:55.833Z,60.32
2018-10-03T14:33:25.737Z,59.27
2018-10-03T14:35:55.374Z,59.64
2018-10-03T14:38:24.628Z,60.35
2018-10-03T14:40:53.787Z,60.07
2018-10-03T14:43:23.991Z,60.95
2018-10-03T14:45:53.643Z,60.58
2018-10-03T14:48:23.452Z,60.05
2018-10-03T14:50:53.451Z,59.07
2018-10-03T14:53:23.347Z,58.41
2018-10-03T14:55:53.375Z,59.68
2018-10-03T14:58:23.488Z,60.41
2018-10-03T15:00:53.448Z,59.17
2018-10-03T15:03:23.426Z,59.82
2018-10-03T15:05:53.547Z,59.64
2018-10-03T15:08:23.451Z,59.28
2018-10-03T15:10:53.516Z,59.05
2018-10-03T15:13:23.459Z,59.13
2018-10-03T15:31:19.903Z,60.66
2018-10-03T15:33:49.055Z,59.85
2018-10-03T15:36:18.191Z,60.74
2018-10-03T15:38:47.357Z,59.92
2018-10-03T15:41:16.510Z,60.34
2018-10-03T15:43:45.659Z,60.60
2018-10-03T15:46:14.855Z,60.41
2018-10-03T15:48:44.026Z,60.73
2018-10-03T15:51:13.355Z,60.70
2018-10-03T15:53:42.556Z,60.57
2018-10-03T15:56:11.716Z,59.77
2018-10-03T15:58:40.846Z,59.64
2018-10-03T16:01:10.042Z,59.37
2018-10-03T16:03:39.334Z,59.62
2018-10-03T16:06:08.495Z,60.75
2018-10-03T16:08:37.650Z,61.09
2018-10-03T16:11:06.819Z,61.46
2018-10-03T16:13:35.999Z,60.42
2018-10-03T16:16:05.135Z,60.85
2018-10-03T16:18:34.289Z,61.33
2018-10-03T16:21:03.434Z,62.04
2018-10-03T16:23:32.571Z,61.66
2018-10-03T16:26:01.745Z,61.08
2018-10-03T16:28:30.869Z,61.24
2018-10-03T16:31:00.007Z,61.49
2018-10-03T16:33:29.143Z,61.13
2018-10-03T16:35:58.299Z,61.87
2018-10-03T16:38:27.434Z,61.54
2018-10-03T16:40:56.571Z,61.76
2018-10-03T16:43:25.701Z,61.48
2018-10-03T16:45:55.141Z,60.82
2018-10-03T16:48:24.290Z,61.50
2018-10-03T16:50:53.799Z,62.07
2018-10-03T16:53:23.751Z,62.07
2018-10-03T16:55:53.808Z,61.73
2018-10-03T16:58:23.870Z,61.25
2018-10-03T17:00:53.877Z,61.47
2018-10-03T17:03:24.233Z,61.67
2018-10-03T17:05:54.179Z,61.51
2018-10-03T17:08:23.748Z,62.72
2018-10-03T17:10:54.492Z,62.32
2018-10-03T17:13:23.959Z,62.92
2018-10-03T17:15:55.588Z,63.54
2018-10-03T17:18:24.844Z,63.37
2018-10-03T17:20:54.383Z,63.18
2018-10-03T17:23:23.930Z,63.99
2018-10-03T17:25:53.886Z,63.85
2018-10-03T17:28:23.911Z,63.30
2018-10-03T17:30:53.839Z,63.93
2018-10-03T17:33:23.875Z,63.78
2018-10-03T17:35:53.854Z,63.57
2018-10-03T17:38:23.955Z,63.67
2018-10-03T17:40:54.059Z,63.93
2018-10-03T17:43:23.987Z,64.08
2018-10-03T17:45:54.067Z,64.88
2018-10-03T17:48:24.020Z,64.70
2018-10-03T17:50:54.179Z,64.56
2018-10-03T17:53:23.959Z,64.31
2018-10-03T17:55:53.988Z,64.58
2018-10-03T17:58:24.029Z,64.02
2018-10-03T18:00:53.930Z,65.10
2018-10-03T18:03:23.951Z,65.20
2018-10-03T18:05:54.150Z,65.24
2018-10-03T18:08:24.192Z,65.65
2018-10-03T18:10:53.991Z,64.88
2018-10-03T18:13:24.274Z,64.85
2018-10-03T18:15:54.040Z,64.81
2018-10-03T18:18:24.040Z,65.39
2018-10-03T18:20:54.075Z,64.94
2018-10-03T18:23:24.524Z,64.70
2018-10-03T18:25:54.159Z,65.16
2018-10-03T18:28:24.066Z,65.39
2018-10-03T18:30:54.148Z,65.52
2018-10-03T18:33:24.187Z,65.98
2018-10-03T18:35:55.015Z,65.00
2018-10-03T18:38:24.269Z,65.55
2018-10-03T18:40:54.355Z,66.00
2018-10-03T18:43:24.184Z,65.56
2018-10-03T18:45:54.212Z,65.25
2018-10-03T18:48:24.228Z,65.42
2018-10-03T18:50:54.476Z,66.45
2018-10-03T18:53:24.098Z,65.75
2018-10-03T18:55:54.096Z,65.77
2018-10-03T18:58:24.386Z,65.80
2018-10-03T19:00:54.155Z,66.05
2018-10-03T19:03:24.340Z,66.22
2018-10-03T19:05:54.449Z,66.06
2018-10-03T19:08:24.277Z,65.65
2018-10-03T19:10:54.207Z,65.97
2018-10-03T19:13:24.308Z,66.54
2018-10-03T19:15:54.147Z,66.76
2018-10-03T19:18:24.606Z,66.05
2018-10-03T19:20:54.581Z,66.14
2018-10-03T19:23:24.272Z,66.22
2018-10-03T19:25:54.216Z,66.60
2018-10-03T19:28:24.580Z,66.06
2018-10-03T19:30:54.310Z,66.15
2018-10-03T19:33:24.270Z,66.39
2018-10-03T19:35:54.287Z,66.46
2018-10-03T19:38:24.295Z,66.43
2018-10-03T19:40:54.368Z,65.51
2018-10-03T19:43:24.283Z,65.54
2018-10-03T19:45:54.424Z,65.79
2018-10-03T19:48:24.407Z,65.85
2018-10-03T19:50:54.226Z,66.17
2018-10-03T19:53:29.391Z,66.51
2018-10-03T19:55:58.552Z,65.40
2018-10-03T19:58:27.771Z,65.92
2018-10-03T20:00:56.919Z,66.30
2018-10-03T20:03:26.145Z,66.22
2018-10-03T20:05:55.347Z,66.22
2018-10-03T20:08:24.499Z,66.36
2018-10-03T20:10:54.320Z,66.33
2018-10-03T20:13:25.230Z,66.08
2018-10-03T20:15:54.383Z,65.62
2018-10-03T20:18:24.567Z,66.40
2018-10-03T20:20:54.418Z,66.98
2018-10-03T20:23:24.323Z,66.48
2018-10-03T20:25:54.410Z,66.52
2018-10-03T20:28:23.570Z,66.50
2018-10-03T20:30:52.694Z,65.90
2018-10-03T20:33:22.206Z,67.04
2018-10-03T20:35:51.378Z,66.49
2018-10-03T20:38:20.588Z,66.85
2018-10-03T20:40:49.803Z,66.20
2018-10-03T20:43:19.015Z,66.99
2018-10-03T20:45:48.183Z,66.69
2018-10-03T20:48:17.501Z,67.57
2018-10-03T20:50:46.603Z,67.64
2018-10-03T20:53:15.751Z,68.65
2018-10-03T20:55:44.966Z,68.17
2018-10-03T20:58:14.130Z,67.96
2018-10-03T21:00:43.433Z,66.91
2018-10-03T21:03:12.591Z,67.15
2018-10-03T21:05:42.139Z,67.21
2018-10-03T21:08:11.318Z,67.58
2018-10-03T21:10:40.486Z,66.75
2018-10-03T21:13:09.643Z,66.41
2018-10-03T21:15:38.794Z,66.22
2018-10-03T21:18:07.948Z,67.63
2018-10-03T21:20:37.094Z,67.43
2018-10-03T21:23:06.492Z,67.20
2018-10-03T21:25:35.690Z,67.17
2018-10-03T21:28:04.842Z,67.42
2018-10-03T21:30:34.083Z,67.67
2018-10-03T21:33:03.247Z,67.36
2018-10-03T21:35:32.389Z,67.56
2018-10-03T21:38:01.561Z,67.69
2018-10-03T21:40:30.741Z,67.67
2018-10-03T21:42:59.879Z,68.33
2018-10-03T21:45:29.339Z,68.02
2018-10-03T21:47:58.469Z,67.32
2018-10-03T21:50:27.844Z,67.64
2018-10-03T21:52:57.043Z,68.12
2018-10-03T21:55:26.802Z,67.91
2018-10-03T21:57:57.666Z,67.99
2018-10-03T22:00:32.237Z,67.98
2018-10-03T22:03:01.452Z,67.35
2018-10-03T22:05:30.615Z,68.49
2018-10-03T22:07:59.775Z,67.36
2018-10-03T22:10:29.176Z,67.18
2018-10-03T22:12:58.331Z,67.11
2018-10-03T22:15:27.559Z,66.80
2018-10-03T22:17:56.814Z,66.52
2018-10-03T22:20:26.843Z,66.12
2018-10-03T22:22:56.779Z,66.24
2018-10-03T22:25:33.399Z,66.69
2018-10-03T22:28:02.537Z,66.91
2018-10-03T22:30:31.761Z,66.33
2018-10-03T22:33:00.888Z,67.03
2018-10-03T22:35:30.067Z,66.35
2018-10-03T22:37:59.202Z,66.23
2018-10-03T22:40:28.358Z,67.09
2018-10-03T22:42:57.506Z,67.50
2018-10-03T22:45:26.927Z,66.81
2018-10-03T22:47:56.911Z,67.02
2018-10-03T22:50:27.067Z,67.36
2018-10-03T22:52:56.847Z,67.50
2018-10-03T22:55:26.885Z,67.71
2018-10-03T22:57:56.843Z,66.81
2018-10-03T23:00:27.032Z,66.81
2018-10-03T23:02:56.918Z,66.98
2018-10-03T23:05:26.959Z,66.14
2018-10-03T23:07:56.960Z,66.66
2018-10-03T23:10:26.979Z,66.06
2018-10-03T23:12:56.876Z,65.95
2018-10-03T23:15:26.907Z,66.09
2018-10-03T23:17:57.127Z,66.46
2018-10-03T23:20:26.961Z,65.84
2018-10-03T23:22:56.457Z,65.91
2018-10-03T23:25:25.656Z,66.02
2018-10-03T23:27:54.839Z,65.81
2018-10-03T23:30:24.025Z,65.98
2018-10-03T23:32:53.419Z,66.00
2018-10-03T23:35:22.567Z,65.30
2018-10-03T23:37:51.703Z,65.74
2018-10-03T23:40:20.858Z,65.48
2018-10-03T23:42:50.435Z,65.78
2018-10-03T23:45:19.668Z,66.21
2018-10-03T23:47:48.860Z,65.30
2018-10-03T23:50:18.056Z,64.89
2018-10-03T23:52:47.332Z,64.56
2018-10-03T23:55:16.571Z,64.72
2018-10-03T23:57:45.749Z,65.06
